createdAt,value
2022-11-06T00:00:21.567Z,5.30
2022-11-06T00:02:50.154Z,5.30
2022-11-06T00:05:35.657Z,5.30
2022-11-06T00:08:05.192Z,5.20
2022-11-06T00:10:33.092Z,5.10
2022-11-06T00:13:01.098Z,5.00
2022-11-06T00:15:31.291Z,5.10
2022-11-06T00:17:59.212Z,5.10
2022-11-06T00:20:27.158Z,5.00
2022-11-06T00:22:55.093Z,5.00
2022-11-06T00:25:24.366Z,4.80
2022-11-06T00:27:52.281Z,4.90
2022-11-06T00:30:20.739Z,4.80
2022-11-06T00:32:48.605Z,4.60
2022-11-06T00:35:16.697Z,4.70
2022-11-06T00:37:44.594Z,4.70
2022-11-06T00:40:14.093Z,4.70
2022-11-06T00:42:43.362Z,4.80
2022-11-06T00:45:11.556Z,4.70
2022-11-06T00:47:39.616Z,4.80
2022-11-06T00:50:08.545Z,4.70
2022-11-06T00:52:36.411Z,4.70
2022-11-06T00:55:04.477Z,4.50
2022-11-06T00:57:32.471Z,4.30
2022-11-06T01:00:01.727Z,4.20
2022-11-06T01:02:29.792Z,4.10
2022-11-06T01:04:57.755Z,4.40
2022-11-06T01:07:25.661Z,5.10
2022-11-06T01:09:53.524Z,4.70
2022-11-06T01:12:21.628Z,4.30
2022-11-06T01:14:49.528Z,4.50
2022-11-06T01:17:18.732Z,4.40
2022-11-06T01:19:46.895Z,4.30
2022-11-06T01:22:14.770Z,4.30
2022-11-06T01:24:42.832Z,4.10
2022-11-06T01:27:27.240Z,4.00
2022-11-06T01:29:55.607Z,4.00
2022-11-06T01:32:25.015Z,4.00
2022-11-06T01:34:52.974Z,4.00
2022-11-06T01:37:20.856Z,3.80
2022-11-06T01:39:50.182Z,3.70
2022-11-06T01:42:18.025Z,3.70
2022-11-06T01:45:26.739Z,3.80
2022-11-06T01:47:55.996Z,3.80
2022-11-06T01:50:24.051Z,3.80
2022-11-06T01:52:51.998Z,3.90
2022-11-06T01:55:23.768Z,3.70
2022-11-06T01:57:51.714Z,3.70
2022-11-06T02:00:21.082Z,3.80
2022-11-06T02:02:49.093Z,3.70
2022-11-06T02:05:18.462Z,3.40
2022-11-06T02:07:46.393Z,3.40
2022-11-06T02:10:14.233Z,3.30
2022-11-06T02:12:49.734Z,3.30
2022-11-06T02:15:28.496Z,3.20
2022-11-06T02:18:13.022Z,3.50
2022-11-06T02:20:44.946Z,3.50
2022-11-06T02:23:32.771Z,3.50
2022-11-06T02:26:08.957Z,3.60
2022-11-06T02:28:39.228Z,3.50
2022-11-06T02:31:09.192Z,3.50
2022-11-06T02:33:39.616Z,3.40
2022-11-06T02:36:10.046Z,3.30
2022-11-06T02:38:39.617Z,3.20
2022-11-06T02:41:09.467Z,3.30
2022-11-06T02:43:39.600Z,3.20
2022-11-06T02:46:10.715Z,3.30
2022-11-06T02:48:40.922Z,3.50
2022-11-06T02:51:09.837Z,3.30
2022-11-06T02:53:37.695Z,3.10
2022-11-06T02:56:07.185Z,3.20
2022-11-06T02:58:40.902Z,3.00
2022-11-06T03:01:13.876Z,3.00
2022-11-06T03:03:43.266Z,2.90
2022-11-06T03:06:13.189Z,2.90
2022-11-06T03:08:42.069Z,2.90
2022-11-06T03:11:13.681Z,2.70
2022-11-06T03:13:48.763Z,2.40
2022-11-06T03:16:23.788Z,2.40
2022-11-06T03:18:55.435Z,2.40
2022-11-06T03:21:25.600Z,2.30
2022-11-06T03:23:55.001Z,2.20
2022-11-06T03:26:23.747Z,2.40
2022-11-06T03:28:54.261Z,2.50
2022-11-06T03:31:27.100Z,2.60
2022-11-06T03:33:56.495Z,2.60
2022-11-06T03:36:25.523Z,2.80
2022-11-06T03:38:54.174Z,2.90
2022-11-06T03:41:25.124Z,3.00
2022-11-06T03:43:55.633Z,2.90
2022-11-06T03:46:25.207Z,2.80
2022-11-06T03:48:54.790Z,2.60
2022-11-06T03:51:23.623Z,2.50
2022-11-06T03:53:53.121Z,2.60
2022-11-06T03:56:23.359Z,2.80
2022-11-06T03:58:51.695Z,2.90
2022-11-06T04:01:23.260Z,2.50
2022-11-06T04:03:53.050Z,2.40
2022-11-06T04:06:23.026Z,2.60
2022-11-06T04:09:08.645Z,2.50
2022-11-06T04:11:54.401Z,2.60
2022-11-06T04:14:22.537Z,2.50
2022-11-06T04:16:53.238Z,2.30
2022-11-06T04:19:21.825Z,2.40
2022-11-06T04:22:05.647Z,2.50
2022-11-06T04:24:55.849Z,2.40
2022-11-06T04:27:28.502Z,2.50
2022-11-06T04:30:05.630Z,2.80
2022-11-06T04:32:41.965Z,2.40
2022-11-06T04:35:14.627Z,2.30
2022-11-06T04:37:44.639Z,2.30
2022-11-06T04:40:13.207Z,2.30
2022-11-06T04:42:43.107Z,2.20
2022-11-06T04:45:12.401Z,2.30
2022-11-06T04:47:41.690Z,2.60
2022-11-06T04:50:09.794Z,2.40
2022-11-06T04:52:37.679Z,2.40
2022-11-06T04:55:06.339Z,2.10
2022-11-06T04:57:34.181Z,2.30
2022-11-06T05:00:02.059Z,2.30
2022-11-06T05:02:30.061Z,2.20
2022-11-06T05:04:59.367Z,2.00
2022-11-06T05:07:27.239Z,2.00
2022-11-06T05:09:55.139Z,2.30
2022-11-06T05:12:23.021Z,2.20
2022-11-06T05:14:50.895Z,2.10
2022-11-06T05:17:18.761Z,2.10
2022-11-06T05:19:46.660Z,2.20
2022-11-06T05:22:33.546Z,2.10
2022-11-06T05:25:01.422Z,2.00
2022-11-06T05:27:29.328Z,1.90
2022-11-06T05:29:57.187Z,2.00
2022-11-06T05:32:25.079Z,2.00
2022-11-06T05:34:52.978Z,1.90
2022-11-06T05:37:22.187Z,1.80
2022-11-06T05:39:50.034Z,2.10
2022-11-06T05:42:17.927Z,1.90
2022-11-06T05:44:45.778Z,1.90
2022-11-06T05:47:13.656Z,2.10
2022-11-06T05:49:41.519Z,2.10
2022-11-06T05:52:09.425Z,2.00
2022-11-06T05:54:38.709Z,2.00
2022-11-06T05:57:06.594Z,2.00
2022-11-06T05:59:34.477Z,1.70
2022-11-06T06:02:02.521Z,1.70
2022-11-06T06:04:30.467Z,1.80
2022-11-06T06:06:58.378Z,1.80
2022-11-06T06:09:26.258Z,2.00
2022-11-06T06:11:55.539Z,2.00
2022-11-06T06:14:23.788Z,2.00
2022-11-06T06:16:51.701Z,1.90
2022-11-06T06:19:19.790Z,1.80
2022-11-06T06:21:47.688Z,1.60
2022-11-06T06:24:15.677Z,1.50
2022-11-06T06:26:43.645Z,1.50
2022-11-06T06:29:13.004Z,1.50
2022-11-06T06:31:40.885Z,1.90
2022-11-06T06:34:08.769Z,2.70
2022-11-06T06:36:36.676Z,2.10
2022-11-06T06:39:04.683Z,2.00
2022-11-06T06:41:33.246Z,1.80
2022-11-06T06:44:01.108Z,1.70
2022-11-06T06:46:30.375Z,1.80
2022-11-06T06:48:58.306Z,1.90
2022-11-06T06:51:26.190Z,2.00
2022-11-06T06:53:54.072Z,2.00
2022-11-06T06:56:21.948Z,2.00
2022-11-06T06:58:49.818Z,1.90
2022-11-06T07:01:17.746Z,1.90
2022-11-06T07:03:47.020Z,1.90
2022-11-06T07:06:14.945Z,2.10
2022-11-06T07:08:42.858Z,2.30
2022-11-06T07:11:11.334Z,3.20
2022-11-06T07:13:39.181Z,3.50
2022-11-06T07:16:07.968Z,3.50
2022-11-06T07:18:35.859Z,3.30
2022-11-06T07:21:07.057Z,3.20
2022-11-06T07:23:35.344Z,3.30
2022-11-06T07:26:03.389Z,3.10
2022-11-06T07:28:31.240Z,3.10
2022-11-06T07:30:59.801Z,3.50
2022-11-06T07:33:27.686Z,3.80
2022-11-06T07:35:55.547Z,4.20
2022-11-06T07:38:24.766Z,4.80
2022-11-06T07:40:52.653Z,4.90
2022-11-06T07:43:20.485Z,5.30
2022-11-06T07:45:48.353Z,5.50
2022-11-06T07:48:16.646Z,6.30
2022-11-06T07:50:44.692Z,7.60
2022-11-06T07:53:12.901Z,7.20
2022-11-06T07:55:48.541Z,7.80
2022-11-06T07:58:16.762Z,7.90
2022-11-06T08:00:47.893Z,7.70
2022-11-06T08:03:15.794Z,7.80
2022-11-06T08:05:43.620Z,7.80
2022-11-06T08:08:11.849Z,8.00
2022-11-06T08:10:43.511Z,8.30
2022-11-06T08:13:12.919Z,8.40
2022-11-06T08:15:40.980Z,8.50
2022-11-06T08:18:09.339Z,8.70
2022-11-06T08:20:37.608Z,9.10
2022-11-06T08:23:06.926Z,8.90
2022-11-06T08:25:35.088Z,8.70
2022-11-06T08:28:03.130Z,9.10
2022-11-06T08:30:32.495Z,9.10
2022-11-06T08:33:01.662Z,9.00
2022-11-06T08:35:29.787Z,9.10
2022-11-06T08:37:57.778Z,9.30
2022-11-06T08:40:30.625Z,9.60
2022-11-06T08:43:02.505Z,9.50
2022-11-06T08:45:31.766Z,9.60
2022-11-06T08:48:02.089Z,9.60
2022-11-06T08:50:30.041Z,9.70
2022-11-06T08:52:57.940Z,10.10
2022-11-06T08:55:27.561Z,10.50
2022-11-06T08:57:55.898Z,10.60
2022-11-06T09:00:23.825Z,10.30
2022-11-06T09:02:55.511Z,10.20
2022-11-06T09:05:23.417Z,10.10
2022-11-06T09:07:51.446Z,10.40
2022-11-06T09:10:22.526Z,10.40
2022-11-06T09:12:50.393Z,10.70
2022-11-06T09:15:21.268Z,10.80
2022-11-06T09:17:49.912Z,10.90
2022-11-06T09:20:19.979Z,11.10
2022-11-06T09:22:48.121Z,11.50
2022-11-06T09:25:16.282Z,11.40
2022-11-06T09:27:44.558Z,11.50
2022-11-06T09:30:15.815Z,11.60
2022-11-06T09:32:46.589Z,11.80
2022-11-06T09:35:14.455Z,11.80
2022-11-06T09:37:43.633Z,12.50
2022-11-06T09:40:17.792Z,12.50
2022-11-06T09:42:51.481Z,12.40
2022-11-06T09:45:22.682Z,12.60
2022-11-06T09:47:52.284Z,12.60
2022-11-06T09:50:22.665Z,12.60
2022-11-06T09:52:52.936Z,12.80
2022-11-06T09:55:22.694Z,12.80
2022-11-06T09:57:52.381Z,13.20
2022-11-06T10:00:23.451Z,13.20
2022-11-06T10:02:52.172Z,13.50
2022-11-06T10:05:25.104Z,13.50
2022-11-06T10:07:55.232Z,13.30
2022-11-06T10:10:26.434Z,13.60
2022-11-06T10:13:08.621Z,13.60
2022-11-06T10:15:37.806Z,13.90
2022-11-06T10:18:09.697Z,14.60
2022-11-06T10:20:42.281Z,14.60
2022-11-06T10:23:17.720Z,14.80
2022-11-06T10:25:47.707Z,14.70
2022-11-06T10:28:23.865Z,14.40
2022-11-06T10:30:54.681Z,14.10
2022-11-06T10:33:28.062Z,14.50
2022-11-06T10:35:58.573Z,14.50
2022-11-06T10:38:29.219Z,14.30
2022-11-06T10:40:57.247Z,14.20
2022-11-06T10:43:27.961Z,14.30
2022-11-06T10:46:00.709Z,14.00
2022-11-06T10:48:37.078Z,14.00
2022-11-06T10:51:21.215Z,13.80
2022-11-06T10:53:54.837Z,13.50
2022-11-06T10:56:34.299Z,14.00
2022-11-06T10:59:02.127Z,14.30
2022-11-06T11:01:30.102Z,14.00
2022-11-06T11:03:58.025Z,13.80
2022-11-06T11:06:25.903Z,14.10
2022-11-06T11:08:55.166Z,13.80
2022-11-06T11:11:24.413Z,14.10
2022-11-06T11:14:08.996Z,14.30
2022-11-06T11:16:39.689Z,14.40
2022-11-06T11:19:17.183Z,14.10
2022-11-06T11:21:53.579Z,14.30
2022-11-06T11:24:22.918Z,14.30
2022-11-06T11:26:51.400Z,14.30
2022-11-06T11:29:20.997Z,14.30
2022-11-06T11:31:51.182Z,14.40
2022-11-06T11:34:21.061Z,14.50
2022-11-06T11:36:53.218Z,14.50
2022-11-06T11:39:25.111Z,14.80
2022-11-06T11:41:53.003Z,14.90
2022-11-06T11:44:20.927Z,14.50
2022-11-06T11:46:49.878Z,14.40
2022-11-06T11:49:28.398Z,14.70
2022-11-06T11:51:56.325Z,14.90
2022-11-06T11:54:26.808Z,14.80
2022-11-06T11:57:05.324Z,15.00
2022-11-06T11:59:35.989Z,14.70
2022-11-06T12:02:05.504Z,14.80
2022-11-06T12:04:36.133Z,14.70
2022-11-06T12:07:05.425Z,14.70
2022-11-06T12:09:35.870Z,14.90
2022-11-06T12:12:03.724Z,14.90
2022-11-06T12:14:34.141Z,15.00
2022-11-06T12:17:11.138Z,15.00
2022-11-06T12:19:39.049Z,15.10
2022-11-06T12:22:08.791Z,14.90
2022-11-06T12:24:41.330Z,15.20
2022-11-06T12:27:11.692Z,15.30
2022-11-06T12:29:40.827Z,15.20
2022-11-06T12:32:11.219Z,15.40
2022-11-06T12:34:40.728Z,15.00
2022-11-06T12:37:18.226Z,15.00
2022-11-06T12:39:48.670Z,14.80
2022-11-06T12:42:16.501Z,14.60
2022-11-06T12:44:44.307Z,14.70
2022-11-06T12:47:15.794Z,14.60
2022-11-06T12:50:04.933Z,14.80
2022-11-06T12:52:46.705Z,14.60
2022-11-06T12:55:20.301Z,14.50
2022-11-06T12:57:58.595Z,14.30
2022-11-06T13:00:31.462Z,14.30
2022-11-06T13:03:16.564Z,14.30
2022-11-06T13:05:47.000Z,14.00
2022-11-06T13:08:19.464Z,13.90
2022-11-06T13:10:53.169Z,14.10
2022-11-06T13:13:29.337Z,14.20
2022-11-06T13:15:59.457Z,14.00
2022-11-06T13:18:29.925Z,13.90
2022-11-06T13:21:00.500Z,13.70
2022-11-06T13:23:29.502Z,13.30
2022-11-06T13:26:03.246Z,13.40
2022-11-06T13:28:34.280Z,13.10
2022-11-06T13:31:03.710Z,13.30
2022-11-06T13:33:33.509Z,13.00
2022-11-06T13:36:01.529Z,12.70
2022-11-06T13:38:34.466Z,12.90
2022-11-06T13:41:04.339Z,12.70
2022-11-06T13:43:34.665Z,12.70
2022-11-06T13:46:07.038Z,12.80
2022-11-06T13:48:39.721Z,12.60
2022-11-06T13:51:12.341Z,12.70
2022-11-06T13:53:42.362Z,12.70
2022-11-06T13:56:19.333Z,12.70
2022-11-06T13:59:05.757Z,12.70
2022-11-06T14:01:42.185Z,12.70
2022-11-06T14:04:27.508Z,12.40
2022-11-06T14:06:55.367Z,12.30
2022-11-06T14:09:24.256Z,12.40
2022-11-06T14:11:54.816Z,12.60
2022-11-06T14:14:26.017Z,12.50
2022-11-06T14:17:12.697Z,12.30
2022-11-06T14:19:40.695Z,12.10
2022-11-06T14:22:18.959Z,11.90
2022-11-06T14:24:46.789Z,11.90
2022-11-06T14:28:00.000Z,11.90
2022-11-06T14:31:11.675Z,12.00
2022-11-06T14:34:00.860Z,12.10
2022-11-06T14:36:34.827Z,12.10
2022-11-06T14:39:03.943Z,12.10
2022-11-06T14:41:53.477Z,11.90
2022-11-06T14:44:49.749Z,11.80
2022-11-06T14:47:26.475Z,11.70
2022-11-06T14:49:54.733Z,11.80
2022-11-06T14:52:22.851Z,11.80
2022-11-06T14:54:54.010Z,11.90
2022-11-06T14:57:35.677Z,11.80
2022-11-06T15:00:05.947Z,11.60
2022-11-06T15:02:33.955Z,11.50
2022-11-06T15:05:02.675Z,11.50
2022-11-06T15:08:03.428Z,11.30
2022-11-06T15:10:51.817Z,11.10
2022-11-06T15:13:27.374Z,11.00
2022-11-06T15:15:59.420Z,10.80
2022-11-06T15:18:27.232Z,10.70
2022-11-06T15:20:56.388Z,10.60
2022-11-06T15:23:25.194Z,10.50
2022-11-06T15:25:58.045Z,10.40
2022-11-06T15:28:28.176Z,10.40
2022-11-06T15:30:59.893Z,10.40
2022-11-06T15:33:29.510Z,10.30
2022-11-06T15:35:57.517Z,10.20
2022-11-06T15:38:26.722Z,10.20
2022-11-06T15:40:54.699Z,10.00
2022-11-06T15:43:29.230Z,10.00
2022-11-06T15:46:16.906Z,9.90
2022-11-06T15:48:45.040Z,9.70
2022-11-06T15:51:25.559Z,9.60
2022-11-06T15:53:53.509Z,9.50
2022-11-06T15:56:23.300Z,9.30
2022-11-06T15:59:09.785Z,9.30
2022-11-06T16:01:39.353Z,9.30
2022-11-06T16:04:13.144Z,9.20
2022-11-06T16:06:43.700Z,9.00
2022-11-06T16:09:16.812Z,8.90
2022-11-06T16:11:45.615Z,8.80
2022-11-06T16:14:14.608Z,8.80
2022-11-06T16:16:45.638Z,8.70
2022-11-06T16:19:26.284Z,8.70
2022-11-06T16:21:56.166Z,8.60
2022-11-06T16:24:24.070Z,8.60
2022-11-06T16:26:52.171Z,8.50
2022-11-06T16:29:21.431Z,8.30
2022-11-06T16:31:50.805Z,8.10
2022-11-06T16:34:22.665Z,8.10
2022-11-06T16:36:52.627Z,8.20
2022-11-06T16:39:50.708Z,8.10
2022-11-06T16:42:27.694Z,8.10
2022-11-06T16:45:01.613Z,8.10
2022-11-06T16:47:30.822Z,7.90
2022-11-06T16:49:59.646Z,7.90
2022-11-06T16:52:28.750Z,7.90
2022-11-06T16:54:58.699Z,7.80
2022-11-06T16:57:27.628Z,7.70
2022-11-06T16:59:56.959Z,7.70
2022-11-06T17:02:25.705Z,7.70
2022-11-06T17:05:07.103Z,7.80
2022-11-06T17:07:34.942Z,7.70
2022-11-06T17:10:27.465Z,7.60
2022-11-06T17:12:55.308Z,7.60
2022-11-06T17:15:23.137Z,7.70
2022-11-06T17:17:51.242Z,7.60
2022-11-06T17:20:20.490Z,7.60
2022-11-06T17:22:49.964Z,7.70
2022-11-06T17:25:17.893Z,7.70
2022-11-06T17:27:45.715Z,7.60
2022-11-06T17:30:14.756Z,7.60
2022-11-06T17:32:42.703Z,7.60
2022-11-06T17:35:10.675Z,7.60
2022-11-06T17:37:39.891Z,7.60
2022-11-06T17:40:08.710Z,7.50
2022-11-06T17:42:36.540Z,7.50
2022-11-06T17:45:04.616Z,7.60
2022-11-06T17:47:32.438Z,7.70
2022-11-06T17:50:00.456Z,7.50
2022-11-06T17:52:28.386Z,7.40
2022-11-06T17:54:57.597Z,7.50
2022-11-06T17:57:25.432Z,7.60
2022-11-06T17:59:53.263Z,7.70
2022-11-06T18:02:35.227Z,7.40
2022-11-06T18:05:09.541Z,7.60
2022-11-06T18:07:37.402Z,7.50
2022-11-06T18:10:07.458Z,7.50
2022-11-06T18:12:35.304Z,7.40
2022-11-06T18:15:03.207Z,7.40
2022-11-06T18:17:31.061Z,7.30
2022-11-06T18:19:58.886Z,7.30
2022-11-06T18:22:26.691Z,7.30
2022-11-06T18:24:54.507Z,7.20
2022-11-06T18:27:23.656Z,7.40
2022-11-06T18:29:51.458Z,7.20
2022-11-06T18:32:19.305Z,7.30
2022-11-06T18:34:47.119Z,7.30
2022-11-06T18:37:14.976Z,7.40
2022-11-06T18:39:42.803Z,7.40
2022-11-06T18:45:21.039Z,7.60
2022-11-06T18:47:48.815Z,7.40
2022-11-06T18:50:16.716Z,7.50
2022-11-06T18:52:57.484Z,7.60
2022-11-06T18:55:26.154Z,7.60
2022-11-06T18:57:54.256Z,7.40
2022-11-06T19:00:23.730Z,7.50
2022-11-06T19:02:51.738Z,7.50
2022-11-06T19:05:19.641Z,7.60
2022-11-06T19:07:51.928Z,7.60
2022-11-06T19:10:21.708Z,7.60
2022-11-06T19:12:50.247Z,7.70
2022-11-06T19:15:18.132Z,7.70
2022-11-06T19:17:47.246Z,7.70
2022-11-06T19:20:15.247Z,7.60
2022-11-06T19:22:43.353Z,7.60
2022-11-06T19:25:11.268Z,7.70
2022-11-06T19:27:39.220Z,7.70
2022-11-06T19:30:08.401Z,7.80
2022-11-06T19:32:36.273Z,7.80
2022-11-06T19:35:06.039Z,7.80
2022-11-06T19:37:33.907Z,7.70
2022-11-06T19:40:06.133Z,7.60
2022-11-06T19:42:34.386Z,7.50
2022-11-06T19:45:02.346Z,7.40
2022-11-06T19:47:32.238Z,7.50
2022-11-06T19:50:00.146Z,7.60
2022-11-06T19:52:41.133Z,7.60
2022-11-06T19:55:26.972Z,7.60
2022-11-06T19:57:55.457Z,7.50
2022-11-06T20:00:23.306Z,7.60
2022-11-06T20:02:51.347Z,7.60
2022-11-06T20:05:19.363Z,7.60
2022-11-06T20:07:48.557Z,7.70
2022-11-06T20:10:16.599Z,7.60
2022-11-06T20:12:44.446Z,7.50
2022-11-06T20:15:12.353Z,7.60
2022-11-06T20:17:40.319Z,7.60
2022-11-06T20:20:09.473Z,7.60
2022-11-06T20:22:37.341Z,7.50
2022-11-06T20:25:07.480Z,7.50
2022-11-06T20:27:35.572Z,7.60
2022-11-06T20:30:03.410Z,7.70
2022-11-06T20:32:31.273Z,7.70
2022-11-06T20:34:59.123Z,7.70
2022-11-06T20:37:27.401Z,7.60
2022-11-06T20:39:55.258Z,7.80
2022-11-06T20:42:24.476Z,7.60
2022-11-06T20:44:52.322Z,7.60
2022-11-06T20:47:20.267Z,7.60
2022-11-06T20:49:48.137Z,7.70
2022-11-06T20:52:16.023Z,7.70
2022-11-06T20:54:47.165Z,7.70
2022-11-06T20:57:15.776Z,7.70
2022-11-06T20:59:45.013Z,7.60
2022-11-06T21:02:13.022Z,7.60
2022-11-06T21:04:41.029Z,7.60
2022-11-06T21:07:08.911Z,7.70
2022-11-06T21:09:37.373Z,7.70
2022-11-06T21:12:05.421Z,7.80
2022-11-06T21:14:33.436Z,7.80
2022-11-06T21:17:03.241Z,7.80
2022-11-06T21:19:31.242Z,7.90
2022-11-06T21:21:59.105Z,8.00
2022-11-06T21:24:26.974Z,8.00
2022-11-06T21:26:55.970Z,7.90
2022-11-06T21:29:24.273Z,7.90
2022-11-06T21:31:52.412Z,7.90
2022-11-06T21:34:21.654Z,7.90
2022-11-06T21:36:49.526Z,7.90
2022-11-06T21:39:18.533Z,7.90
2022-11-06T21:41:46.600Z,7.90
2022-11-06T21:44:15.066Z,7.90
2022-11-06T21:46:45.637Z,7.90
2022-11-06T21:49:14.455Z,8.00
2022-11-06T21:51:43.682Z,8.10
2022-11-06T21:54:29.489Z,8.20
2022-11-06T21:56:57.382Z,8.30
2022-11-06T21:59:26.446Z,8.30
2022-11-06T22:01:54.583Z,8.30
2022-11-06T22:04:22.583Z,8.20
2022-11-06T22:06:52.921Z,8.20
2022-11-06T22:09:25.256Z,8.30
2022-11-06T22:11:53.731Z,8.30
2022-11-06T22:14:21.596Z,8.10
2022-11-06T22:16:49.834Z,8.20
2022-11-06T22:19:18.609Z,8.30
2022-11-06T22:21:46.469Z,8.10
2022-11-06T22:24:15.862Z,8.10
2022-11-06T22:26:43.733Z,8.10
2022-11-06T22:29:13.524Z,8.10
2022-11-06T22:31:41.564Z,8.00
2022-11-06T22:34:10.434Z,8.00
2022-11-06T22:36:38.279Z,8.00
2022-11-06T22:39:06.483Z,7.90
2022-11-06T22:41:35.804Z,8.00
2022-11-06T22:44:04.629Z,8.00
2022-11-06T22:46:32.708Z,8.00
2022-11-06T22:49:00.680Z,8.00
2022-11-06T22:51:29.883Z,8.00
2022-11-06T22:53:57.791Z,8.10
2022-11-06T22:56:26.194Z,8.10
2022-11-06T22:58:55.889Z,8.10
2022-11-06T23:01:24.213Z,8.10
2022-11-06T23:03:56.460Z,8.00
2022-11-06T23:06:24.593Z,8.00
2022-11-06T23:08:53.017Z,8.00
2022-11-06T23:11:21.213Z,8.20
2022-11-06T23:13:49.037Z,8.20
2022-11-06T23:16:39.089Z,8.20
2022-11-06T23:19:07.194Z,8.10
2022-11-06T23:21:35.090Z,8.20
2022-11-06T23:24:03.115Z,8.10
2022-11-06T23:26:30.932Z,8.10
2022-11-06T23:28:58.744Z,8.30
2022-11-06T23:31:27.942Z,8.20
2022-11-06T23:33:56.095Z,8.10
2022-11-06T23:36:23.952Z,8.10
2022-11-06T23:38:53.601Z,8.20
2022-11-06T23:41:38.891Z,8.30
2022-11-06T23:44:27.059Z,8.10
2022-11-06T23:46:55.254Z,8.30
2022-11-06T23:49:23.245Z,8.30
2022-11-06T23:51:51.298Z,8.10
2022-11-06T23:54:19.097Z,8.10
2022-11-06T23:56:46.926Z,8.10
2022-11-06T23:59:14.737Z,8.20
